Time;durP1;ratioP1;P1;durP2;ratioP2;P2;SDS_P1;SDS_P2;PMS_P1;PMS_P2;Temp;Humidity;BMP_temperature;BMP_pressure;BME280_temperature;BME280_humidity;BME280_pressure;Samples;Min_cycle;Max_cycle;Signal;HPM_P1;HPM_P2
2022/07/28 00:01:37;;;;;;;0.80;0.60;;;14.90;99.90;;;;;;4445221;32;20504;-63
2022/07/28 00:04:02;;;;;;;0.70;0.40;;;14.90;99.90;;;;;;4446040;32;20069;-63
2022/07/28 00:06:28;;;;;;;0.30;0.30;;;14.80;99.90;;;;;;4445537;32;20426;-63
2022/07/28 00:08:54;;;;;;;0.43;0.43;;;14.70;99.90;;;;;;4445864;32;20092;-63
2022/07/28 00:11:19;;;;;;;0.30;0.30;;;14.80;99.90;;;;;;4445015;32;20065;-63
2022/07/28 00:13:44;;;;;;;0.30;0.30;;;14.60;99.90;;;;;;4445940;32;20496;-63
2022/07/28 00:16:10;;;;;;;0.28;0.28;;;14.50;99.90;;;;;;4445653;32;20060;-63
2022/07/28 00:18:36;;;;;;;0.28;0.25;;;14.50;99.90;;;;;;4445160;32;20069;-63
2022/07/28 00:21:02;;;;;;;0.35;0.35;;;14.60;99.90;;;;;;4439090;32;20077;-63
2022/07/28 00:23:28;;;;;;;0.40;0.30;;;14.60;99.90;;;;;;4410621;32;20119;-63
2022/07/28 00:25:53;;;;;;;4.72;1.75;;;14.50;99.90;;;;;;4439184;32;20480;-63
2022/07/28 00:28:19;;;;;;;0.20;0.20;;;14.50;99.90;;;;;;4445415;32;20068;-63
2022/07/28 00:30:44;;;;;;;0.65;0.65;;;14.50;99.90;;;;;;4446078;32;20112;-63
2022/07/28 00:33:09;;;;;;;0.30;0.30;;;14.40;99.90;;;;;;4445795;32;20536;-63
2022/07/28 00:35:35;;;;;;;18.42;0.57;;;14.30;99.90;;;;;;4445665;32;20116;-63
2022/07/28 00:38:01;;;;;;;0.30;0.30;;;14.40;99.90;;;;;;4445730;32;20085;-63
2022/07/28 00:41:27;;;;;;;0.40;0.40;;;14.50;99.90;;;;;;4444907;32;20061;-63
2022/07/28 00:43:13;;;;;;;0.40;0.40;;;14.50;99.90;;;;;;4423071;32;20102;-63
2022/07/28 00:45:39;;;;;;;0.40;0.40;;;14.40;99.90;;;;;;4418358;32;20434;-63
2022/07/28 00:48:04;;;;;;;0.30;0.30;;;14.30;99.90;;;;;;4445616;32;20064;-63
2022/07/28 00:50:30;;;;;;;0.35;0.35;;;14.20;99.90;;;;;;4442347;32;20160;-63
2022/07/28 00:52:56;;;;;;;0.55;0.55;;;14.30;99.90;;;;;;4422805;32;20124;-63
2022/07/28 00:55:23;;;;;;;0.30;0.30;;;14.30;99.90;;;;;;4433407;32;20070;-63
2022/07/28 00:57:48;;;;;;;0.40;0.40;;;14.30;99.90;;;;;;4421359;32;20073;-63
2022/07/28 01:00:14;;;;;;;0.40;0.40;;;14.30;99.90;;;;;;4415642;32;20501;-63
2022/07/28 01:02:40;;;;;;;0.35;0.35;;;14.40;99.90;;;;;;4416016;32;20513;-63
2022/07/28 01:05:06;;;;;;;1.25;0.93;;;14.40;99.90;;;;;;4428971;32;20521;-63
2022/07/28 01:07:42;;;;;;;0.22;0.22;;;14.40;99.90;;;;;;4415844;32;20442;-63
2022/07/28 01:10:17;;;;;;;0.20;0.20;;;14.40;99.90;;;;;;4416844;32;20082;-63
2022/07/28 01:12:49;;;;;;;0.20;0.20;;;14.50;99.90;;;;;;4425415;32;20073;-63
2022/07/28 01:15:20;;;;;;;1.90;0.70;;;14.40;99.90;;;;;;4445720;32;20073;-63
2022/07/28 01:17:53;;;;;;;0.20;0.20;;;14.40;99.90;;;;;;4431307;32;20060;-63
2022/07/28 01:20:29;;;;;;;0.45;0.25;;;14.20;99.90;;;;;;4430413;32;20073;-63
2022/07/28 01:23:34;;;;;;;0.30;0.30;;;14.20;99.90;;;;;;4408560;32;20069;-63
2022/07/28 01:26:17;;;;;;;0.30;0.30;;;14.20;99.90;;;;;;4404185;32;20065;-63
2022/07/28 01:29:09;;;;;;;0.40;0.40;;;14.10;99.90;;;;;;4444839;32;20068;-63
2022/07/28 01:31:41;;;;;;;0.20;0.20;;;14.10;99.90;;;;;;4417102;32;78922;-63
2022/07/28 01:34:11;;;;;;;4.70;1.00;;;14.00;99.90;;;;;;4430937;32;20176;-63
2022/07/28 01:36:44;;;;;;;0.22;0.22;;;14.00;99.90;;;;;;4444372;32;20061;-63
2022/07/28 01:39:12;;;;;;;0.50;0.50;;;14.00;99.90;;;;;;4445103;32;20093;-63
2022/07/28 01:41:40;;;;;;;0.28;0.28;;;14.00;99.90;;;;;;4444878;32;20563;-63
2022/07/28 01:44:11;;;;;;;0.65;0.47;;;13.90;99.90;;;;;;4444319;32;20116;-63
2022/07/28 01:46:37;;;;;;;0.60;0.60;;;13.70;99.90;;;;;;4445715;32;20123;-63
2022/07/28 01:49:05;;;;;;;0.30;0.30;;;13.70;99.90;;;;;;4444622;32;20085;-63
2022/07/28 01:51:32;;;;;;;1.23;0.85;;;13.70;99.90;;;;;;4420854;32;20089;-63
2022/07/28 01:53:59;;;;;;;3.20;0.73;;;13.70;99.90;;;;;;4410768;32;20107;-63
2022/07/28 01:56:27;;;;;;;0.20;0.20;;;13.70;99.90;;;;;;4415473;32;20536;-62
2022/07/28 01:58:55;;;;;;;0.52;0.40;;;13.70;99.90;;;;;;4429730;32;20533;-63
2022/07/28 02:01:22;;;;;;;0.30;0.30;;;13.80;99.90;;;;;;4430231;32;20064;-62
2022/07/28 02:03:50;;;;;;;0.95;0.77;;;13.70;99.90;;;;;;4429961;32;20587;-63
2022/07/28 02:06:18;;;;;;;1.35;0.60;;;13.70;99.90;;;;;;4415353;32;20077;-63
2022/07/28 02:08:45;;;;;;;0.37;0.37;;;13.80;99.90;;;;;;4415309;32;20061;-63
2022/07/28 02:11:43;;;;;;;0.30;0.30;;;13.70;99.90;;;;;;4431465;32;20080;-63
2022/07/28 02:13:57;;;;;;;0.40;0.40;;;13.60;99.90;;;;;;4432373;32;20487;-63
2022/07/28 02:16:26;;;;;;;0.35;0.35;;;13.60;99.90;;;;;;4430871;32;20533;-63
2022/07/28 02:18:54;;;;;;;0.40;0.40;;;13.60;99.90;;;;;;4435303;32;20070;-63
2022/07/28 02:21:23;;;;;;;0.28;0.28;;;13.50;99.90;;;;;;4407057;32;20168;-63
2022/07/28 02:23:50;;;;;;;0.50;0.50;;;13.50;99.90;;;;;;4408333;32;20069;-63
2022/07/28 02:26:20;;;;;;;0.20;0.20;;;13.40;99.90;;;;;;4405729;32;20453;-63
2022/07/28 02:28:51;;;;;;;0.50;0.35;;;13.40;99.90;;;;;;4431439;32;20453;-63
2022/07/28 02:31:23;;;;;;;0.30;0.30;;;13.40;99.90;;;;;;4431130;32;20517;-63
2022/07/28 02:33:50;;;;;;;0.45;0.45;;;13.40;99.90;;;;;;4432424;32;20061;-63
2022/07/28 02:36:27;;;;;;;0.95;0.55;;;13.40;99.90;;;;;;4415196;32;20581;-63
2022/07/28 02:38:54;;;;;;;0.37;0.37;;;13.40;99.90;;;;;;4427981;32;20112;-63
2022/07/28 02:41:25;;;;;;;0.20;0.20;;;13.40;99.90;;;;;;4428394;32;20068;-63
2022/07/28 02:43:54;;;;;;;;;;;13.40;99.90;;;;;;4416481;32;20568;-63
2022/07/28 02:46:24;;;;;;;1.65;1.00;;;13.40;99.90;;;;;;4440471;32;19944;-63
2022/07/28 02:48:55;;;;;;;0.50;0.50;;;13.30;99.90;;;;;;4426594;32;20086;-63
2022/07/28 02:51:22;;;;;;;;;;;13.30;99.90;;;;;;4436526;32;20466;-62
2022/07/28 02:53:48;;;;;;;0.40;0.40;;;13.10;99.90;;;;;;4436015;32;19951;-63
2022/07/28 02:56:16;;;;;;;0.40;0.40;;;13.10;99.90;;;;;;4441627;32;20141;-63
2022/07/28 02:58:43;;;;;;;0.30;0.30;;;13.00;99.90;;;;;;4459246;32;20061;-63
2022/07/28 03:01:10;;;;;;;2.12;0.55;;;13.10;99.90;;;;;;4460763;32;20516;-63
2022/07/28 03:03:36;;;;;;;23.75;3.40;;;13.20;99.90;;;;;;4459168;32;20084;-63
2022/07/28 03:06:02;;;;;;;0.20;0.20;;;13.20;99.90;;;;;;4458842;32;20498;-63
2022/07/28 03:08:27;;;;;;;0.77;0.57;;;13.20;99.90;;;;;;4456141;32;20124;-62
2022/07/28 03:11:09;;;;;;;3.92;0.60;;;13.10;99.90;;;;;;4444585;32;20072;-63
2022/07/28 03:13:36;;;;;;;0.43;0.43;;;13.00;99.90;;;;;;4429373;32;20061;-63
2022/07/28 03:16:03;;;;;;;0.77;0.77;;;13.00;99.90;;;;;;4443429;32;20089;-63
2022/07/28 03:18:28;;;;;;;0.30;0.30;;;13.00;99.90;;;;;;4430598;32;20074;-63
2022/07/28 03:20:55;;;;;;;0.20;0.20;;;13.10;99.90;;;;;;4438217;32;20081;-62
2022/07/28 03:23:25;;;;;;;0.40;0.40;;;13.10;99.90;;;;;;4424514;32;20116;-62
2022/07/28 03:25:53;;;;;;;0.32;0.32;;;12.90;99.90;;;;;;4425535;32;20458;-63
2022/07/28 03:28:20;;;;;;;0.40;0.40;;;12.90;99.90;;;;;;4447086;32;20160;-63
2022/07/28 03:30:54;;;;;;;0.40;0.40;;;12.90;99.90;;;;;;4446110;32;20496;-62
2022/07/28 03:33:20;;;;;;;0.30;0.30;;;12.80;99.90;;;;;;4420735;32;20086;-62
2022/07/28 03:35:50;;;;;;;2.10;0.60;;;12.90;99.90;;;;;;4430849;32;20074;-63
2022/07/28 03:38:37;;;;;;;0.60;0.60;;;13.00;99.90;;;;;;4417036;32;20112;-63
2022/07/28 03:41:05;;;;;;;0.30;0.30;;;12.90;99.90;;;;;;4434164;32;20466;-64
2022/07/28 03:43:31;;;;;;;0.65;0.47;;;12.90;99.90;;;;;;4432493;32;20085;-63
2022/07/28 03:45:57;;;;;;;0.40;0.40;;;12.90;99.90;;;;;;4444866;32;20073;-63
2022/07/28 03:48:28;;;;;;;0.30;0.30;;;13.00;99.90;;;;;;4446700;32;20057;-63
2022/07/28 03:50:53;;;;;;;0.37;0.37;;;13.00;99.90;;;;;;4440813;32;20093;-63
2022/07/28 03:53:23;;;;;;;0.32;0.32;;;13.20;99.90;;;;;;4423269;32;20544;-62
2022/07/28 03:55:49;;;;;;;9.35;0.52;;;13.20;99.90;;;;;;4439218;32;20065;-63
2022/07/28 03:58:19;;;;;;;0.28;0.28;;;13.00;99.90;;;;;;4433421;32;20399;-63
2022/07/28 04:00:45;;;;;;;0.30;0.30;;;13.10;99.90;;;;;;4431201;32;20057;-62
2022/07/28 04:03:10;;;;;;;0.30;0.30;;;13.10;99.90;;;;;;4430414;32;20085;-63
2022/07/28 04:05:36;;;;;;;0.47;0.47;;;13.10;99.90;;;;;;4429687;32;20122;-63
2022/07/28 04:08:01;;;;;;;0.57;0.57;;;13.10;99.90;;;;;;4431655;32;20474;-62
2022/07/28 04:10:27;;;;;;;0.30;0.30;;;13.20;99.90;;;;;;4429990;32;20475;-62
2022/07/28 04:12:55;;;;;;;1.20;0.57;;;13.20;99.90;;;;;;4430508;32;20115;-62
2022/07/28 04:15:22;;;;;;;2.40;0.40;;;13.30;99.90;;;;;;4422993;32;20069;-62
2022/07/28 04:17:49;;;;;;;0.30;0.30;;;13.30;99.90;;;;;;4444930;32;20073;-63
2022/07/28 04:20:16;;;;;;;0.37;0.37;;;13.30;99.90;;;;;;4429528;32;20077;-63
2022/07/28 04:22:43;;;;;;;0.40;0.40;;;13.30;99.90;;;;;;4428400;32;20555;-63
2022/07/28 04:25:08;;;;;;;0.40;0.40;;;13.30;99.90;;;;;;4431624;32;20069;-63
2022/07/28 04:27:35;;;;;;;0.32;0.32;;;13.30;99.90;;;;;;4444353;32;20554;-63
2022/07/28 04:30:05;;;;;;;0.30;0.30;;;13.40;99.90;;;;;;4445073;32;20064;-63
2022/07/28 04:32:31;;;;;;;0.30;0.30;;;13.50;99.90;;;;;;4445107;32;20583;-63
2022/07/28 04:34:56;;;;;;;1.75;0.45;;;13.60;99.90;;;;;;4442793;32;20065;-63
2022/07/28 04:37:21;;;;;;;0.22;0.22;;;13.60;99.90;;;;;;4443151;32;20131;-63
2022/07/28 04:39:48;;;;;;;0.25;0.25;;;13.70;99.90;;;;;;4444207;32;20060;-62
2022/07/28 04:42:15;;;;;;;0.28;0.28;;;13.60;99.90;;;;;;4443507;32;20094;-63
2022/07/28 04:44:41;;;;;;;0.40;0.40;;;13.60;99.90;;;;;;4446389;32;20450;-63
2022/07/28 04:47:07;;;;;;;1.08;0.40;;;13.70;99.90;;;;;;4445417;32;20176;-63
2022/07/28 04:49:33;;;;;;;0.30;0.30;;;13.70;99.90;;;;;;4446012;32;20120;-63
2022/07/28 04:52:17;;;;;;;0.75;0.65;;;13.80;99.90;;;;;;4453342;32;76730;-74
2022/07/28 04:54:43;;;;;;;0.75;0.75;;;13.90;99.90;;;;;;4458458;32;20098;-74
2022/07/28 04:57:09;;;;;;;0.40;0.40;;;14.00;99.90;;;;;;4469381;32;20495;-74
2022/07/28 04:59:35;;;;;;;0.40;0.40;;;14.10;99.90;;;;;;4465939;32;20065;-74
2022/07/28 05:02:01;;;;;;;2.62;1.30;;;14.10;99.90;;;;;;4458865;32;20097;-74
2022/07/28 05:04:27;;;;;;;0.40;0.40;;;14.10;99.90;;;;;;4464717;32;20056;-75
2022/07/28 05:06:52;;;;;;;0.35;0.35;;;14.10;99.90;;;;;;4463940;32;20291;-74
2022/07/28 05:09:18;;;;;;;0.50;0.50;;;14.20;99.90;;;;;;4465639;32;20416;-75
2022/07/28 05:11:43;;;;;;;0.50;0.50;;;14.30;99.90;;;;;;4461971;32;20061;-75
2022/07/28 05:14:09;;;;;;;1.10;0.70;;;14.50;99.90;;;;;;4470129;32;20088;-74
2022/07/28 05:16:35;;;;;;;0.45;0.45;;;14.50;99.90;;;;;;4473908;32;20431;-74
2022/07/28 05:19:01;;;;;;;0.95;0.68;;;14.60;99.90;;;;;;4460040;32;20072;-74
2022/07/28 05:21:26;;;;;;;0.35;0.35;;;14.70;99.90;;;;;;4449923;32;20286;-75
2022/07/28 05:23:52;;;;;;;0.37;0.37;;;14.70;99.90;;;;;;4453216;32;20061;-74
2022/07/28 05:26:17;;;;;;;0.35;0.35;;;14.80;99.90;;;;;;4471165;32;20359;-74
2022/07/28 05:28:43;;;;;;;0.40;0.40;;;14.80;99.90;;;;;;4464950;32;20069;-74
2022/07/28 05:31:08;;;;;;;0.37;0.37;;;14.90;99.90;;;;;;4466122;32;20472;-74
2022/07/28 05:33:34;;;;;;;0.40;0.40;;;15.00;99.90;;;;;;4462789;32;20823;-74
2022/07/28 05:36:00;;;;;;;0.30;0.30;;;15.00;99.90;;;;;;4470876;32;20065;-74
2022/07/28 05:38:26;;;;;;;0.30;0.30;;;15.10;99.90;;;;;;4473131;32;20092;-74
2022/07/28 05:40:52;;;;;;;1.10;0.73;;;15.10;99.90;;;;;;4473172;32;20060;-74
2022/07/28 05:43:18;;;;;;;0.60;0.60;;;15.30;99.90;;;;;;4471957;32;20545;-74
2022/07/28 05:45:45;;;;;;;0.50;0.50;;;15.40;99.90;;;;;;4472816;32;20136;-73
2022/07/28 05:48:11;;;;;;;0.30;0.30;;;15.40;99.90;;;;;;4468562;32;20103;-73
2022/07/28 05:50:36;;;;;;;0.43;0.43;;;15.50;99.90;;;;;;4462061;32;20468;-74
2022/07/28 05:53:02;;;;;;;0.40;0.40;;;15.60;99.90;;;;;;4441892;32;20437;-74
2022/07/28 05:55:28;;;;;;;0.30;0.30;;;15.70;99.90;;;;;;4463330;32;20068;-74
2022/07/28 05:57:53;;;;;;;0.65;0.65;;;15.80;99.90;;;;;;4469443;32;20102;-75
2022/07/28 06:00:21;;;;;;;4.43;0.95;;;15.90;99.90;;;;;;4471280;32;20527;-75
2022/07/28 06:02:48;;;;;;;0.30;0.30;;;15.80;99.90;;;;;;4456784;32;20072;-75
2022/07/28 06:05:16;;;;;;;2.62;0.60;;;15.90;99.90;;;;;;4457381;32;20125;-75
2022/07/28 06:07:42;;;;;;;0.30;0.30;;;16.00;99.90;;;;;;4461748;32;20080;-73
2022/07/28 06:10:08;;;;;;;0.62;0.62;;;16.00;99.90;;;;;;4460854;32;20118;-74
2022/07/28 06:12:44;;;;;;;1.55;0.45;;;16.00;99.90;;;;;;4461124;32;20069;-74
2022/07/28 06:15:15;;;;;;;0.60;0.60;;;16.10;99.90;;;;;;4461494;32;20128;-74
2022/07/28 06:17:41;;;;;;;;;;;16.10;99.90;;;;;;4461500;32;20149;-74
2022/07/28 06:20:07;;;;;;;0.47;0.47;;;16.20;99.90;;;;;;4461855;32;20356;-74
2022/07/28 06:22:50;;;;;;;0.32;0.32;;;16.40;99.90;;;;;;4442368;32;20171;-73
2022/07/28 06:25:18;;;;;;;0.40;0.40;;;16.50;99.90;;;;;;4450455;32;20076;-74
2022/07/28 06:27:48;;;;;;;0.70;0.70;;;16.50;99.90;;;;;;4458538;32;20061;-73
2022/07/28 06:30:14;;;;;;;1.00;0.40;;;16.60;99.90;;;;;;4444921;32;20298;-74
2022/07/28 06:32:40;;;;;;;0.50;0.50;;;16.60;99.90;;;;;;4437376;32;20189;-74
2022/07/28 06:35:06;;;;;;;0.30;0.30;;;16.70;99.90;;;;;;4451355;32;20056;-74
2022/07/28 06:37:32;;;;;;;0.40;0.40;;;16.80;99.90;;;;;;4460768;32;20064;-75
2022/07/28 06:39:58;;;;;;;3.15;0.50;;;16.90;99.90;;;;;;4461161;32;20490;-75
2022/07/28 06:42:24;;;;;;;0.30;0.30;;;16.90;99.90;;;;;;4461108;32;20175;-75
2022/07/28 06:44:50;;;;;;;0.30;0.30;;;16.90;99.90;;;;;;4460492;32;20134;-75
2022/07/28 06:47:16;;;;;;;0.40;0.40;;;17.00;99.90;;;;;;4447173;32;20239;-74
2022/07/28 06:49:41;;;;;;;0.25;0.25;;;17.20;99.90;;;;;;4445761;32;20129;-74
2022/07/28 06:52:07;;;;;;;3.10;0.65;;;17.20;99.90;;;;;;4430353;32;20463;-75
2022/07/28 06:54:32;;;;;;;0.73;0.73;;;17.20;99.90;;;;;;4430231;32;20069;-74
2022/07/28 06:56:58;;;;;;;1.83;1.10;;;17.30;99.90;;;;;;4446893;32;20505;-74
2022/07/28 06:59:23;;;;;;;2.28;0.70;;;17.40;99.90;;;;;;4454336;32;20061;-74
2022/07/28 07:01:49;;;;;;;0.30;0.30;;;17.40;99.90;;;;;;4452186;32;20072;-74
2022/07/28 07:04:14;;;;;;;0.52;0.50;;;17.30;99.90;;;;;;4451525;32;20082;-73
2022/07/28 07:06:40;;;;;;;2.28;0.93;;;17.30;99.90;;;;;;4460699;32;20512;-74
2022/07/28 07:09:05;;;;;;;0.50;0.50;;;17.40;99.90;;;;;;4458123;32;20061;-73
2022/07/28 07:11:31;;;;;;;0.40;0.40;;;17.40;99.90;;;;;;4457575;32;20077;-73
2022/07/28 07:13:56;;;;;;;2.25;0.40;;;17.50;99.90;;;;;;4460459;32;20068;-74
2022/07/28 07:16:22;;;;;;;0.40;0.40;;;17.70;99.90;;;;;;4460793;32;20073;-75
2022/07/28 07:18:51;;;;;;;0.40;0.40;;;17.80;99.90;;;;;;4458434;32;20567;-74
2022/07/28 07:21:17;;;;;;;0.60;0.60;;;17.90;99.90;;;;;;4454879;32;20584;-74
2022/07/28 07:23:43;;;;;;;0.22;0.22;;;18.00;99.90;;;;;;4442929;32;20057;-74
2022/07/28 07:26:08;;;;;;;2.90;1.30;;;18.10;99.90;;;;;;4457084;32;20527;-73
2022/07/28 07:28:34;;;;;;;0.80;0.40;;;18.10;99.90;;;;;;4453758;32;20061;-74
2022/07/28 07:30:59;;;;;;;0.30;0.30;;;18.20;99.90;;;;;;4440323;32;20090;-74
2022/07/28 07:33:25;;;;;;;0.85;0.70;;;18.10;99.90;;;;;;4435783;32;20069;-74
2022/07/28 07:35:50;;;;;;;0.32;0.32;;;18.10;99.90;;;;;;4442994;32;20077;-73
2022/07/28 07:38:16;;;;;;;1.10;1.00;;;18.20;99.90;;;;;;4453665;32;20090;-73
2022/07/28 07:40:42;;;;;;;0.20;0.20;;;18.30;99.90;;;;;;4461002;32;20073;-73
2022/07/28 07:43:07;;;;;;;0.30;0.30;;;18.40;99.90;;;;;;4461009;32;20068;-74
2022/07/28 07:45:33;;;;;;;1.25;0.55;;;18.50;99.90;;;;;;4455436;32;20463;-73
2022/07/28 07:47:59;;;;;;;0.30;0.30;;;18.50;99.90;;;;;;4446464;32;20061;-74
2022/07/28 07:50:25;;;;;;;0.50;0.50;;;18.60;99.90;;;;;;4443793;32;20089;-74
2022/07/28 07:52:50;;;;;;;0.45;0.45;;;18.60;99.90;;;;;;4425729;32;20138;-74
2022/07/28 07:55:16;;;;;;;1.25;0.40;;;18.70;99.90;;;;;;4445802;32;20060;-74
2022/07/28 07:57:43;;;;;;;0.30;0.30;;;19.00;99.90;;;;;;4461011;32;20508;-74
2022/07/28 08:00:09;;;;;;;0.40;0.40;;;19.20;99.90;;;;;;4445545;32;20078;-74
2022/07/28 08:02:38;;;;;;;0.30;0.30;;;19.30;99.90;;;;;;4435504;32;20073;-74
2022/07/28 08:05:04;;;;;;;0.75;0.75;;;19.40;99.90;;;;;;4438598;32;20085;-74
2022/07/28 08:07:30;;;;;;;6.22;0.45;;;19.30;99.90;;;;;;4444668;32;20082;-74
2022/07/28 08:09:55;;;;;;;0.43;0.43;;;19.20;99.90;;;;;;4444498;32;20065;-74
2022/07/28 08:12:21;;;;;;;1.75;0.75;;;19.10;99.90;;;;;;4444853;32;20090;-74
2022/07/28 08:14:46;;;;;;;0.30;0.30;;;19.00;99.90;;;;;;4444552;32;20107;-74
2022/07/28 08:17:11;;;;;;;0.30;0.30;;;18.80;99.90;;;;;;4445403;32;20785;-74
2022/07/28 08:19:37;;;;;;;0.40;0.40;;;18.90;99.90;;;;;;4445417;32;20069;-74
2022/07/28 08:22:03;;;;;;;0.43;0.43;;;19.00;99.90;;;;;;4431077;32;20093;-74
2022/07/28 08:24:28;;;;;;;0.20;0.20;;;19.20;99.90;;;;;;4428082;32;20081;-74
2022/07/28 08:26:54;;;;;;;1.45;0.95;;;19.30;99.90;;;;;;4445012;32;20572;-74
2022/07/28 08:29:19;;;;;;;0.25;0.25;;;19.40;99.90;;;;;;4445129;32;20065;-74
2022/07/28 08:31:45;;;;;;;0.85;0.60;;;19.60;99.90;;;;;;4437191;32;20127;-74
2022/07/28 08:34:10;;;;;;;0.30;0.30;;;19.70;99.90;;;;;;4434289;32;20076;-74
2022/07/28 08:36:36;;;;;;;0.50;0.50;;;19.70;99.90;;;;;;4444584;32;20415;-74
2022/07/28 08:39:01;;;;;;;0.93;0.77;;;19.70;99.90;;;;;;4445096;32;20124;-74
2022/07/28 08:41:35;;;;;;;8.38;0.62;;;19.70;99.90;;;;;;4444819;32;20069;-75
2022/07/28 08:44:02;;;;;;;0.85;0.75;;;19.80;99.90;;;;;;4446235;32;20550;-74
2022/07/28 08:46:36;;;;;;;0.30;0.30;;;19.90;99.90;;;;;;4445599;32;20081;-74
2022/07/28 08:49:07;;;;;;;2.90;0.70;;;19.90;99.90;;;;;;4444284;32;20069;-74
2022/07/28 08:51:33;;;;;;;;;;;19.90;99.90;;;;;;4435479;32;20085;-75
2022/07/28 08:54:01;;;;;;;0.30;0.30;;;20.00;99.90;;;;;;4428137;32;19952;-74
2022/07/28 08:56:27;;;;;;;0.28;0.28;;;20.10;99.90;;;;;;4458423;32;20582;-74
2022/07/28 08:58:53;;;;;;;0.95;0.77;;;20.00;99.90;;;;;;4459489;32;20065;-74
2022/07/28 09:01:19;;;;;;;0.30;0.30;;;20.10;99.70;;;;;;4454554;32;20124;-74
2022/07/28 09:03:45;;;;;;;0.37;0.37;;;20.00;99.90;;;;;;4449853;32;20174;-74
2022/07/28 09:06:10;;;;;;;0.20;0.20;;;20.10;99.90;;;;;;4459745;32;20069;-74
2022/07/28 09:08:36;;;;;;;3.03;0.77;;;20.20;99.90;;;;;;4460875;32;20076;-74
2022/07/28 09:11:01;;;;;;;0.30;0.30;;;20.20;99.80;;;;;;4460279;32;20065;-74
2022/07/28 09:13:27;;;;;;;0.30;0.30;;;20.20;99.40;;;;;;4459923;32;20339;-74
2022/07/28 09:15:53;;;;;;;0.32;0.32;;;20.30;98.30;;;;;;4459978;32;20126;-74
2022/07/28 09:18:19;;;;;;;0.30;0.30;;;20.10;98.80;;;;;;4459779;32;20475;-74
2022/07/28 09:20:45;;;;;;;0.40;0.40;;;20.10;99.10;;;;;;4457158;32;20534;-74
2022/07/28 09:23:11;;;;;;;0.30;0.30;;;20.10;98.70;;;;;;4440542;32;20068;-74
2022/07/28 09:25:36;;;;;;;0.45;0.45;;;20.30;98.00;;;;;;4452405;32;20073;-74
2022/07/28 09:28:17;;;;;;;5.05;0.62;;;20.40;98.40;;;;;;4460015;32;20072;-74
2022/07/28 09:30:45;;;;;;;0.30;0.30;;;20.50;98.00;;;;;;4455589;32;20446;-74
2022/07/28 09:33:13;;;;;;;0.85;0.45;;;20.60;97.90;;;;;;4449073;32;20523;-73
2022/07/28 09:35:45;;;;;;;0.30;0.30;;;20.60;98.10;;;;;;4455256;32;20064;-73
2022/07/28 09:38:12;;;;;;;0.22;0.22;;;20.60;96.60;;;;;;4460671;32;20126;-72
2022/07/28 09:40:38;;;;;;;5.87;0.50;;;20.50;97.00;;;;;;4461829;32;20512;-73
2022/07/28 09:43:04;;;;;;;0.30;0.30;;;20.50;97.40;;;;;;4462656;32;20124;-73
2022/07/28 09:45:29;;;;;;;0.75;0.75;;;20.60;97.30;;;;;;4457379;32;20489;-73
2022/07/28 09:48:12;;;;;;;0.20;0.20;;;20.80;96.60;;;;;;4446815;32;20124;-73
2022/07/28 09:50:41;;;;;;;0.40;0.40;;;20.60;96.30;;;;;;4444116;32;20159;-74
2022/07/28 09:53:25;;;;;;;1.05;0.50;;;20.40;96.50;;;;;;4426529;32;20517;-74
2022/07/28 09:55:56;;;;;;;0.20;0.20;;;20.40;96.90;;;;;;4453201;32;20088;-74
2022/07/28 09:58:22;;;;;;;1.02;0.40;;;20.60;96.80;;;;;;4462795;32;20065;-74
2022/07/28 10:00:47;;;;;;;0.30;0.30;;;20.70;96.90;;;;;;4448889;32;20065;-73
2022/07/28 10:03:24;;;;;;;0.20;0.20;;;20.80;95.50;;;;;;4435832;32;20080;-74
2022/07/28 10:05:50;;;;;;;6.43;1.00;;;20.90;96.70;;;;;;4458947;32;20073;-74
2022/07/28 10:08:15;;;;;;;0.25;0.25;;;21.20;95.20;;;;;;4461246;32;20085;-74
2022/07/28 10:10:41;;;;;;;0.30;0.30;;;21.30;95.50;;;;;;4461392;32;20504;-74
2022/07/28 10:13:06;;;;;;;0.30;0.30;;;21.40;95.80;;;;;;4462731;32;20077;-73
2022/07/28 10:16:32;;;;;;;0.30;0.30;;;21.60;94.70;;;;;;4463013;32;20069;-74
2022/07/28 10:18:17;;;;;;;0.22;0.22;;;21.80;94.20;;;;;;4461151;32;20093;-74
2022/07/28 10:20:43;;;;;;;0.50;0.50;;;21.90;94.60;;;;;;4446286;32;20512;-74
2022/07/28 10:23:11;;;;;;;14.60;0.40;;;22.00;94.10;;;;;;4427930;32;20056;-74
2022/07/28 10:25:38;;;;;;;0.65;0.62;;;22.40;95.30;;;;;;4440003;32;20089;-73
2022/07/28 10:28:05;;;;;;;0.20;0.20;;;22.60;93.50;;;;;;4445867;32;20490;-74
2022/07/28 10:30:36;;;;;;;0.22;0.22;;;22.80;92.30;;;;;;4453858;32;20073;-73
2022/07/28 10:33:04;;;;;;;1.12;0.40;;;23.00;91.90;;;;;;4452967;32;20081;-73
2022/07/28 10:35:32;;;;;;;0.32;0.28;;;23.20;92.00;;;;;;4457182;32;20085;-75
2022/07/28 10:38:01;;;;;;;0.32;0.30;;;23.30;90.80;;;;;;4461722;32;20092;-75
2022/07/28 10:40:31;;;;;;;0.30;0.30;;;23.50;91.00;;;;;;4461864;32;20099;-75
2022/07/28 10:42:58;;;;;;;0.30;0.30;;;23.40;91.20;;;;;;4461201;32;20118;-75
2022/07/28 10:45:25;;;;;;;1.00;0.65;;;23.20;90.10;;;;;;4456625;32;20088;-74
2022/07/28 10:47:50;;;;;;;0.45;0.45;;;22.50;91.10;;;;;;4447750;32;20077;-74
2022/07/28 10:50:18;;;;;;;0.37;0.37;;;22.10;91.40;;;;;;4445815;32;20143;-74
2022/07/28 10:52:45;;;;;;;0.20;0.20;;;22.10;91.90;;;;;;4426126;32;20157;-74
2022/07/28 10:55:21;;;;;;;0.20;0.20;;;22.20;92.10;;;;;;4445197;32;20532;-74
2022/07/28 10:58:18;;;;;;;0.20;0.20;;;22.70;91.70;;;;;;4445729;32;20084;-74
2022/07/28 11:00:49;;;;;;;1.35;0.40;;;23.40;91.40;;;;;;4436403;32;20527;-74
2022/07/28 11:03:37;;;;;;;1.27;0.70;;;23.70;90.40;;;;;;4450956;32;20394;-74
2022/07/28 11:06:23;;;;;;;0.32;0.32;;;24.20;86.60;;;;;;4457775;32;20125;-73
2022/07/28 11:08:51;;;;;;;0.60;0.60;;;24.70;86.80;;;;;;4460695;32;20064;-73
2022/07/28 11:11:45;;;;;;;0.20;0.20;;;25.00;83.50;;;;;;4460904;32;20064;-73
2022/07/28 11:14:34;;;;;;;0.15;0.15;;;24.70;85.50;;;;;;4460239;32;20064;-73
2022/07/28 11:17:05;;;;;;;0.20;0.20;;;25.00;84.40;;;;;;4459662;32;20069;-73
2022/07/28 11:19:51;;;;;;;0.13;0.13;;;25.70;85.20;;;;;;4460708;32;20124;-74
2022/07/28 11:22:20;;;;;;;0.20;0.20;;;25.70;81.70;;;;;;4445531;32;20072;-74
2022/07/28 11:25:04;;;;;;;0.10;0.10;;;25.50;82.70;;;;;;4446056;32;20124;-74
2022/07/28 11:27:53;;;;;;;0.20;0.20;;;26.00;82.70;;;;;;4461832;32;20479;-74
2022/07/28 11:30:30;;;;;;;7.57;1.35;;;26.30;77.70;;;;;;4432620;32;20658;-74
2022/07/28 11:32:56;;;;;;;0.10;0.10;;;26.50;75.30;;;;;;4434959;32;20081;-74
2022/07/28 11:35:27;;;;;;;0.10;0.10;;;26.60;74.90;;;;;;4440552;32;20130;-74
2022/07/28 11:38:01;;;;;;;;;;;26.60;76.50;;;;;;4445307;32;20088;-75
2022/07/28 11:40:29;;;;;;;0.32;0.28;;;26.70;75.80;;;;;;4444961;32;20343;-75
2022/07/28 11:43:28;;;;;;;0.10;0.10;;;26.50;75.20;;;;;;4445057;32;20123;-75
2022/07/28 11:46:04;;;;;;;0.00;0.00;;;26.60;76.60;;;;;;4444036;32;20135;-73
2022/07/28 11:48:30;;;;;;;0.10;0.10;;;26.70;73.50;;;;;;4447844;32;20060;-73
2022/07/28 11:51:05;;;;;;;0.22;0.22;;;26.70;74.20;;;;;;4456284;32;20085;-75
2022/07/28 11:53:33;;;;;;;0.10;0.10;;;26.40;75.60;;;;;;4440535;32;20094;-73
2022/07/28 11:56:02;;;;;;;0.15;0.15;;;26.30;74.40;;;;;;4439748;32;20089;-73
2022/07/28 11:58:28;;;;;;;0.20;0.20;;;26.50;74.60;;;;;;4444718;32;20085;-73
2022/07/28 12:01:11;;;;;;;0.00;0.00;;;26.30;74.50;;;;;;4447529;32;20068;-73
2022/07/28 12:03:39;;;;;;;0.32;0.13;;;26.60;75.00;;;;;;4448666;32;20515;-74
2022/07/28 12:06:05;;;;;;;0.75;0.47;;;26.90;71.40;;;;;;4458706;32;20493;-74
2022/07/28 12:08:52;;;;;;;0.00;0.00;;;27.50;72.60;;;;;;4461380;32;20065;-74
2022/07/28 12:11:18;;;;;;;0.10;0.10;;;28.10;70.40;;;;;;4461439;32;20080;-75
2022/07/28 12:13:45;;;;;;;0.10;0.10;;;28.50;69.20;;;;;;4460461;32;20069;-75
2022/07/28 12:16:11;;;;;;;0.05;0.05;;;28.90;68.20;;;;;;4460397;32;20061;-75
2022/07/28 12:18:37;;;;;;;0.05;0.05;;;29.10;66.60;;;;;;4456391;32;20086;-75
2022/07/28 12:21:03;;;;;;;0.10;0.10;;;29.00;65.40;;;;;;4440158;32;20082;-75
2022/07/28 12:23:30;;;;;;;0.13;0.13;;;29.40;66.10;;;;;;4425206;32;20548;-75
2022/07/28 12:25:56;;;;;;;0.10;0.10;;;29.30;64.00;;;;;;4438832;32;20631;-75
2022/07/28 12:28:22;;;;;;;0.10;0.10;;;28.80;65.70;;;;;;4445066;32;20069;-74
2022/07/28 12:30:50;;;;;;;0.30;0.30;;;29.30;64.30;;;;;;4441092;32;20426;-74
2022/07/28 12:33:18;;;;;;;0.32;0.30;;;29.20;65.10;;;;;;4448578;32;20119;-74
2022/07/28 12:35:44;;;;;;;0.28;0.28;;;29.20;63.50;;;;;;4456562;32;20064;-74
2022/07/28 12:38:10;;;;;;;0.10;0.10;;;29.20;64.30;;;;;;4459325;32;20080;-74
2022/07/28 12:40:38;;;;;;;0.00;0.00;;;28.70;65.60;;;;;;4459469;32;20114;-74
2022/07/28 12:43:04;;;;;;;0.55;0.47;;;28.00;64.80;;;;;;4460403;32;20528;-74
2022/07/28 12:45:31;;;;;;;0.13;0.13;;;27.50;65.90;;;;;;4459720;32;20077;-74
2022/07/28 12:48:05;;;;;;;0.00;0.00;;;27.10;67.10;;;;;;4459483;32;20076;-74
2022/07/28 12:50:37;;;;;;;0.70;0.40;;;27.50;67.30;;;;;;4442028;32;20650;-74
2022/07/28 12:53:06;;;;;;;0.00;0.00;;;28.20;68.10;;;;;;4423864;32;20632;-74
2022/07/28 12:55:33;;;;;;;0.98;0.47;;;29.00;64.10;;;;;;4447124;32;20073;-74